createdAt,value
2023-02-19T00:00:39.782Z,99416.56
2023-02-19T00:02:42.760Z,99417.28
2023-02-19T00:04:45.734Z,99415.31
2023-02-19T00:06:49.588Z,99422.91
2023-02-19T00:08:51.811Z,99426.31
2023-02-19T00:10:54.354Z,99412.47
2023-02-19T00:12:56.782Z,99401.13
2023-02-19T00:14:59.033Z,99405.19
2023-02-19T00:17:01.373Z,99398.03
2023-02-19T00:19:06.456Z,99422.53
2023-02-19T00:21:09.609Z,99407.69
2023-02-19T00:23:12.332Z,99414.91
2023-02-19T00:25:14.811Z,99435.44
2023-02-19T00:27:17.554Z,99423.72
2023-02-19T00:29:21.813Z,99424.75
2023-02-19T00:31:33.350Z,99404.88
2023-02-19T00:33:36.240Z,99395.13
2023-02-19T00:35:39.127Z,99403.84
2023-02-19T00:37:42.586Z,99398.06
2023-02-19T00:39:45.150Z,99384.34
2023-02-19T00:41:48.355Z,99437.31
2023-02-19T00:44:02.090Z,99405.31
2023-02-19T00:46:04.687Z,99417.84
2023-02-19T00:48:07.131Z,99441.16
2023-02-19T00:50:09.862Z,99416.88
2023-02-19T00:52:12.696Z,99438.44
2023-02-19T00:54:15.719Z,99394.72
2023-02-19T00:56:18.624Z,99359.47
2023-02-19T00:58:21.058Z,99411.22
2023-02-19T01:00:23.870Z,99426.22
2023-02-19T01:02:27.300Z,99418.34
2023-02-19T01:04:29.783Z,99360.09
2023-02-19T01:06:33.309Z,99416.00
2023-02-19T01:08:36.259Z,99418.47
2023-02-19T01:10:38.407Z,99395.72
2023-02-19T01:12:40.796Z,99417.94
2023-02-19T01:14:43.457Z,99440.44
2023-02-19T01:16:45.696Z,99417.94
2023-02-19T01:18:49.205Z,99406.28
2023-02-19T01:20:53.716Z,99400.50
2023-02-19T01:22:56.017Z,99429.66
2023-02-19T01:24:58.390Z,99395.81
2023-02-19T01:27:00.804Z,99345.97
2023-02-19T01:29:04.225Z,99376.34
2023-02-19T01:31:09.898Z,99426.59
2023-02-19T01:33:12.740Z,99380.66
2023-02-19T01:35:15.564Z,99373.66
2023-02-19T01:37:18.266Z,99397.66
2023-02-19T01:39:20.735Z,99380.22
2023-02-19T01:41:25.771Z,99391.59
2023-02-19T01:43:29.314Z,99365.94
2023-02-19T01:45:38.551Z,99361.63
2023-02-19T01:47:40.832Z,99358.47
2023-02-19T01:49:51.473Z,99388.47
2023-02-19T01:52:02.256Z,99364.16
2023-02-19T01:54:07.536Z,99385.47
2023-02-19T01:56:10.642Z,99367.44
2023-02-19T01:58:16.097Z,99319.84
2023-02-19T02:00:18.974Z,99377.03
2023-02-19T02:02:24.441Z,99364.50
2023-02-19T02:04:30.347Z,99321.06
2023-02-19T02:06:43.137Z,99338.19
2023-02-19T02:09:04.846Z,99359.16
2023-02-19T02:11:07.324Z,99301.44
2023-02-19T02:13:09.651Z,99335.44
2023-02-19T02:15:12.857Z,99327.72
2023-02-19T02:17:27.038Z,99302.91
2023-02-19T02:20:10.797Z,99282.66
2023-02-19T02:22:21.119Z,99336.94
2023-02-19T02:25:13.780Z,99356.03
2023-02-19T02:27:40.489Z,99322.66
2023-02-19T02:30:07.355Z,99313.41
2023-02-19T02:32:16.223Z,99284.59
2023-02-19T02:34:27.938Z,99310.72
2023-02-19T02:36:38.218Z,99285.91
2023-02-19T02:38:44.983Z,99297.97
2023-02-19T02:40:48.966Z,99301.97
2023-02-19T02:42:52.119Z,99292.00
2023-02-19T02:45:17.776Z,99253.03
2023-02-19T02:47:38.963Z,99302.94
2023-02-19T02:50:01.282Z,99285.72
2023-02-19T02:52:24.617Z,99265.72
2023-02-19T02:54:51.141Z,99273.41
2023-02-19T02:56:58.290Z,99288.47
2023-02-19T02:59:08.491Z,99306.81
2023-02-19T03:01:39.059Z,99291.22
2023-02-19T03:03:44.989Z,99284.41
2023-02-19T03:05:53.159Z,99280.34
2023-02-19T03:08:05.053Z,99289.34
2023-02-19T03:10:12.686Z,99322.59
2023-02-19T03:12:36.610Z,99294.69
2023-02-19T03:15:05.685Z,99257.59
2023-02-19T03:17:39.439Z,99270.00
2023-02-19T03:19:46.345Z,99290.72
2023-02-19T03:22:02.512Z,99275.03
2023-02-19T03:24:27.725Z,99288.13
2023-02-19T03:26:33.723Z,99281.50
2023-02-19T03:29:10.548Z,99276.13
2023-02-19T03:31:20.127Z,99236.91
2023-02-19T03:33:27.103Z,99293.78
2023-02-19T03:35:34.372Z,99300.09
2023-02-19T03:37:42.524Z,99302.22
2023-02-19T03:39:45.855Z,99266.66
2023-02-19T03:42:16.927Z,99268.16
2023-02-19T03:44:35.145Z,99253.09
2023-02-19T03:46:49.222Z,99269.13
2023-02-19T03:48:54.234Z,99242.13
2023-02-19T03:51:25.996Z,99216.59
2023-02-19T03:53:40.954Z,99273.63
2023-02-19T03:55:52.425Z,99263.34
2023-02-19T03:58:20.198Z,99273.03
2023-02-19T04:00:55.129Z,99201.03
2023-02-19T04:03:01.393Z,99237.63
2023-02-19T04:05:15.071Z,99237.19
2023-02-19T04:07:18.078Z,99242.75
2023-02-19T04:09:23.963Z,99186.13
2023-02-19T04:11:34.888Z,99211.06
2023-02-19T04:13:58.719Z,99234.78
2023-02-19T04:16:09.582Z,99246.03
2023-02-19T04:18:16.911Z,99229.31
2023-02-19T04:20:21.763Z,99199.63
2023-02-19T04:22:25.626Z,99184.16
2023-02-19T04:24:41.920Z,99242.31
2023-02-19T04:26:45.137Z,99213.88
2023-02-19T04:28:47.612Z,99206.44
2023-02-19T04:30:50.441Z,99179.06
2023-02-19T04:32:52.852Z,99185.06
2023-02-19T04:34:55.498Z,99176.66
2023-02-19T04:36:58.045Z,99144.34
2023-02-19T04:39:00.431Z,99178.50
2023-02-19T04:41:02.868Z,99156.78
2023-02-19T04:43:05.494Z,99144.47
2023-02-19T04:45:08.964Z,99163.09
2023-02-19T04:47:11.393Z,99181.72
2023-02-19T04:49:13.731Z,99166.13
2023-02-19T04:51:16.171Z,99183.59
2023-02-19T04:53:18.441Z,99165.34
2023-02-19T04:55:20.858Z,99195.97
2023-02-19T04:57:23.222Z,99191.19
2023-02-19T04:59:25.570Z,99199.47
2023-02-19T05:01:28.055Z,99125.47
2023-02-19T05:03:30.780Z,99176.22
2023-02-19T05:05:33.426Z,99154.63
2023-02-19T05:07:35.755Z,99182.09
2023-02-19T05:09:38.195Z,99166.56
2023-02-19T05:11:40.482Z,99169.91
2023-02-19T05:13:42.672Z,99174.84
2023-02-19T05:15:55.531Z,99159.50
2023-02-19T05:17:57.918Z,99128.09
2023-02-19T05:20:01.033Z,99156.59
2023-02-19T05:22:03.561Z,99148.31
2023-02-19T05:24:06.434Z,99167.59
2023-02-19T05:26:21.995Z,99171.31
2023-02-19T05:28:34.264Z,99148.84
2023-02-19T05:30:36.682Z,99172.03
2023-02-19T05:32:39.276Z,99159.88
2023-02-19T05:34:41.711Z,99148.06
2023-02-19T05:36:44.585Z,99175.44
2023-02-19T05:38:48.135Z,99170.63
2023-02-19T05:40:51.126Z,99192.84
2023-02-19T05:42:53.744Z,99152.28
2023-02-19T05:44:56.807Z,99158.00
2023-02-19T05:46:58.980Z,99166.44
2023-02-19T05:49:01.928Z,99173.19
2023-02-19T05:51:07.072Z,99163.97
2023-02-19T05:53:10.100Z,99158.13
2023-02-19T05:55:13.169Z,99141.16
2023-02-19T05:57:15.970Z,99190.50
2023-02-19T05:59:21.250Z,99161.16
2023-02-19T06:01:26.600Z,99195.53
2023-02-19T06:03:29.234Z,99165.59
2023-02-19T06:05:31.758Z,99159.06
2023-02-19T06:07:34.888Z,99169.59
2023-02-19T06:09:37.206Z,99127.84
2023-02-19T06:11:40.017Z,99094.19
2023-02-19T06:13:42.523Z,99141.41
2023-02-19T06:15:44.854Z,99156.38
2023-02-19T06:17:48.804Z,99132.28
2023-02-19T06:19:51.486Z,99164.44
2023-02-19T06:21:53.783Z,99154.25
2023-02-19T06:23:56.146Z,99127.97
2023-02-19T06:26:20.066Z,99166.06
2023-02-19T06:28:23.149Z,99149.09
2023-02-19T06:30:26.354Z,99166.19
2023-02-19T06:32:28.790Z,99143.19
2023-02-19T06:34:31.199Z,99139.78
2023-02-19T06:36:34.172Z,99159.19
2023-02-19T06:38:36.381Z,99113.72
2023-02-19T06:40:39.483Z,99123.66
2023-02-19T06:42:41.652Z,99141.66
2023-02-19T06:44:43.999Z,99106.34
2023-02-19T06:46:46.281Z,99146.34
2023-02-19T06:48:48.752Z,99154.28
2023-02-19T06:50:51.341Z,99113.97
2023-02-19T06:52:53.794Z,99133.25
2023-02-19T06:54:55.984Z,99133.03
2023-02-19T06:56:59.489Z,99123.69
2023-02-19T06:59:04.816Z,99154.31
2023-02-19T07:01:07.507Z,99141.47
2023-02-19T07:03:09.959Z,99124.03
2023-02-19T07:05:12.942Z,99151.47
2023-02-19T07:07:15.330Z,99141.19
2023-02-19T07:09:17.651Z,99157.34
2023-02-19T07:11:20.150Z,99163.19
2023-02-19T07:13:24.210Z,99111.88
2023-02-19T07:15:26.628Z,99155.00
2023-02-19T07:17:29.094Z,99107.31
2023-02-19T07:19:31.847Z,99140.50
2023-02-19T07:21:38.034Z,99134.66
2023-02-19T07:23:40.937Z,99120.38
2023-02-19T07:25:43.486Z,99116.63
2023-02-19T07:27:46.044Z,99110.31
2023-02-19T07:29:48.591Z,99140.59
2023-02-19T07:31:51.243Z,99143.25
2023-02-19T07:33:53.520Z,99130.63
2023-02-19T07:35:55.957Z,99128.50
2023-02-19T07:37:58.260Z,99089.91
2023-02-19T07:40:00.689Z,99143.50
2023-02-19T07:42:02.863Z,99117.94
2023-02-19T07:44:07.872Z,99107.88
2023-02-19T07:46:13.896Z,99097.97
2023-02-19T07:48:17.296Z,99110.44
2023-02-19T07:50:19.570Z,99130.50
2023-02-19T07:52:22.397Z,99110.88
2023-02-19T07:54:25.024Z,99110.50
2023-02-19T07:56:29.579Z,99131.22
2023-02-19T07:58:33.011Z,99138.19
2023-02-19T08:00:35.405Z,99134.13
2023-02-19T08:02:56.825Z,99105.34
2023-02-19T08:04:59.740Z,99118.34
2023-02-19T08:07:02.376Z,99133.78
2023-02-19T08:09:06.322Z,99130.97
2023-02-19T08:11:29.464Z,99120.47
2023-02-19T08:13:32.014Z,99107.25
2023-02-19T08:15:34.463Z,99097.00
2023-02-19T08:17:37.322Z,99134.16
2023-02-19T08:19:40.092Z,99167.97
2023-02-19T08:21:42.833Z,99155.09
2023-02-19T08:23:46.574Z,99143.63
2023-02-19T08:25:51.000Z,99163.19
2023-02-19T08:27:53.222Z,99166.59
2023-02-19T08:29:56.274Z,99163.69
2023-02-19T08:31:58.646Z,99132.47
2023-02-19T08:34:01.403Z,99158.19
2023-02-19T08:36:08.769Z,99195.00
2023-02-19T08:38:12.563Z,99159.13
2023-02-19T08:40:15.500Z,99168.94
2023-02-19T08:42:18.217Z,99142.06
2023-02-19T08:44:21.691Z,99160.19
2023-02-19T08:46:24.201Z,99197.94
2023-02-19T08:48:26.779Z,99164.16
2023-02-19T08:50:29.035Z,99149.31
2023-02-19T08:52:32.750Z,99153.56
2023-02-19T08:54:37.213Z,99169.00
2023-02-19T08:56:40.291Z,99157.53
2023-02-19T08:58:44.102Z,99195.88
2023-02-19T09:00:46.849Z,99177.66
2023-02-19T09:02:50.327Z,99172.50
2023-02-19T09:04:52.978Z,99179.78
2023-02-19T09:06:55.499Z,99205.03
2023-02-19T09:08:58.617Z,99179.78
2023-02-19T09:11:02.738Z,99181.66
2023-02-19T09:13:05.195Z,99216.50
2023-02-19T09:15:08.485Z,99201.28
2023-02-19T09:17:11.420Z,99209.25
2023-02-19T09:19:14.105Z,99220.00
2023-02-19T09:21:16.648Z,99217.78
2023-02-19T09:23:19.349Z,99195.94
2023-02-19T09:25:21.909Z,99224.91
2023-02-19T09:27:24.335Z,99197.09
2023-02-19T09:29:28.425Z,99212.41
2023-02-19T09:31:31.024Z,99191.59
2023-02-19T09:33:34.194Z,99222.34
2023-02-19T09:35:40.170Z,99214.41
2023-02-19T09:37:42.889Z,99250.28
2023-02-19T09:39:45.372Z,99177.66
2023-02-19T09:42:14.179Z,99278.25
2023-02-19T09:44:28.454Z,99286.16
2023-02-19T09:46:48.281Z,99296.56
2023-02-19T09:48:53.027Z,99264.91
2023-02-19T09:50:57.132Z,99252.56
2023-02-19T09:53:05.251Z,99279.44
2023-02-19T09:55:18.315Z,99271.81
2023-02-19T09:57:22.141Z,99309.31
2023-02-19T09:59:28.650Z,99297.13
2023-02-19T10:01:37.700Z,99303.69
2023-02-19T10:03:44.098Z,99313.13
2023-02-19T10:05:46.675Z,99315.38
2023-02-19T10:07:53.085Z,99316.28
2023-02-19T10:10:03.117Z,99303.22
2023-02-19T10:12:17.314Z,99306.97
2023-02-19T10:14:28.817Z,99329.69
2023-02-19T10:16:31.700Z,99290.44
2023-02-19T10:18:41.414Z,99286.66
2023-02-19T10:20:44.091Z,99298.53
2023-02-19T10:22:47.129Z,99283.69
2023-02-19T10:24:56.135Z,99299.97
2023-02-19T10:26:58.823Z,99325.97
2023-02-19T10:29:02.667Z,99325.41
2023-02-19T10:31:16.355Z,99330.56
2023-02-19T10:33:20.170Z,99342.06
2023-02-19T10:35:22.420Z,99341.66
2023-02-19T10:37:25.481Z,99333.66
2023-02-19T10:39:43.956Z,99331.06
2023-02-19T10:41:46.251Z,99345.66
2023-02-19T10:44:01.217Z,99366.19
2023-02-19T10:46:18.236Z,99386.34
2023-02-19T10:48:28.583Z,99355.19
2023-02-19T10:50:47.339Z,99362.59
2023-02-19T10:52:54.836Z,99381.13
2023-02-19T10:55:14.423Z,99369.16
2023-02-19T10:57:19.856Z,99410.25
2023-02-19T10:59:27.361Z,99373.28
2023-02-19T11:01:30.336Z,99396.00
2023-02-19T11:03:32.756Z,99403.19
2023-02-19T11:05:38.700Z,99414.00
2023-02-19T11:07:55.217Z,99411.63
2023-02-19T11:09:59.262Z,99391.88
2023-02-19T11:12:05.854Z,99376.81
2023-02-19T11:14:20.141Z,99424.72
2023-02-19T11:16:24.144Z,99363.50
2023-02-19T11:18:32.287Z,99457.81
2023-02-19T11:20:34.871Z,99430.75
2023-02-19T11:22:47.322Z,99474.06
2023-02-19T11:24:57.293Z,99475.81
2023-02-19T11:27:04.437Z,99448.53
2023-02-19T11:29:26.375Z,99468.31
2023-02-19T11:31:36.490Z,99477.88
2023-02-19T11:34:04.591Z,99427.47
2023-02-19T11:36:16.634Z,99486.22
2023-02-19T11:38:21.312Z,99487.34
2023-02-19T11:40:38.143Z,99447.38
2023-02-19T11:42:59.371Z,99456.22
2023-02-19T11:45:35.778Z,99442.16
2023-02-19T11:48:09.047Z,99466.16
2023-02-19T11:50:26.399Z,99497.91
2023-02-19T11:53:00.195Z,99499.13
2023-02-19T11:55:05.397Z,99499.34
2023-02-19T11:57:43.242Z,99505.59
2023-02-19T12:00:01.185Z,99475.84
2023-02-19T12:02:39.340Z,99486.06
2023-02-19T12:05:19.365Z,99498.09
2023-02-19T12:07:51.714Z,99515.56
2023-02-19T12:10:06.475Z,99491.44
2023-02-19T12:12:31.203Z,99495.13
2023-02-19T12:14:58.939Z,99526.00
2023-02-19T12:17:28.870Z,99532.28
2023-02-19T12:19:55.392Z,99508.94
2023-02-19T12:22:25.821Z,99538.25
2023-02-19T12:24:40.529Z,99552.81
2023-02-19T12:27:01.311Z,99538.53
2023-02-19T12:29:24.902Z,99548.03
2023-02-19T12:31:39.931Z,99544.47
2023-02-19T12:33:57.716Z,99549.69
2023-02-19T12:36:22.887Z,99498.25
2023-02-19T12:38:37.310Z,99536.34
2023-02-19T12:41:13.572Z,99546.75
2023-02-19T12:43:24.025Z,99545.03
2023-02-19T12:45:58.228Z,99504.53
2023-02-19T12:48:17.460Z,99520.31
2023-02-19T12:50:26.194Z,99523.00
2023-02-19T12:52:37.188Z,99491.94
2023-02-19T12:54:44.029Z,99511.69
2023-02-19T12:56:53.134Z,99567.66
2023-02-19T12:59:05.234Z,99543.75
2023-02-19T13:01:10.726Z,99571.78
2023-02-19T13:03:41.583Z,99514.84
2023-02-19T13:05:53.028Z,99531.56
2023-02-19T13:08:04.379Z,99593.50
2023-02-19T13:10:30.577Z,99603.38
2023-02-19T13:12:41.555Z,99578.81
2023-02-19T13:15:00.694Z,99556.13
2023-02-19T13:17:29.928Z,99613.03
2023-02-19T13:19:33.850Z,99576.03
2023-02-19T13:21:56.810Z,99559.56
2023-02-19T13:24:03.387Z,99581.41
2023-02-19T13:26:44.917Z,99623.22
2023-02-19T13:29:23.271Z,99599.97
2023-02-19T13:31:58.064Z,99624.97
2023-02-19T13:34:21.138Z,99600.34
2023-02-19T13:36:28.836Z,99569.34
2023-02-19T13:38:32.137Z,99583.63
2023-02-19T13:40:39.752Z,99577.78
2023-02-19T13:42:42.335Z,99614.72
2023-02-19T13:44:48.982Z,99566.16
2023-02-19T13:46:51.823Z,99607.78
2023-02-19T13:49:25.207Z,99643.81
2023-02-19T13:51:28.124Z,99647.38
2023-02-19T13:53:45.097Z,99644.81
2023-02-19T13:55:52.747Z,99610.66
2023-02-19T13:58:15.685Z,99593.84
2023-02-19T14:00:56.742Z,99652.13
2023-02-19T14:03:31.524Z,99635.81
2023-02-19T14:05:59.894Z,99654.91
2023-02-19T14:08:02.643Z,99622.66
2023-02-19T14:10:13.073Z,99592.38
2023-02-19T14:12:18.484Z,99662.59
2023-02-19T14:14:54.864Z,99666.78
2023-02-19T14:17:04.010Z,99648.19
2023-02-19T14:19:36.881Z,99636.97
2023-02-19T14:21:41.062Z,99641.47
2023-02-19T14:23:44.501Z,99644.66
2023-02-19T14:25:52.982Z,99621.97
2023-02-19T14:28:03.949Z,99676.88
2023-02-19T14:30:06.758Z,99669.72
2023-02-19T14:32:18.590Z,99647.50
2023-02-19T14:34:25.405Z,99687.13
2023-02-19T14:36:40.783Z,99658.84
2023-02-19T14:39:10.867Z,99694.31
2023-02-19T14:41:16.377Z,99622.38
2023-02-19T14:43:21.693Z,99684.44
2023-02-19T14:45:25.253Z,99647.63
2023-02-19T14:47:32.550Z,99693.22
2023-02-19T14:50:16.626Z,99695.94
2023-02-19T14:52:32.405Z,99707.97
2023-02-19T14:54:38.133Z,99711.69
2023-02-19T14:56:44.283Z,99636.63
2023-02-19T14:58:47.052Z,99658.28
2023-02-19T15:00:49.693Z,99683.03
2023-02-19T15:02:58.920Z,99690.25
2023-02-19T15:05:01.545Z,99723.78
2023-02-19T15:07:08.940Z,99676.91
2023-02-19T15:09:14.195Z,99639.16
2023-02-19T15:11:22.017Z,99683.56
2023-02-19T15:13:29.968Z,99707.47
2023-02-19T15:15:45.701Z,99648.66
2023-02-19T15:17:49.239Z,99717.34
2023-02-19T15:19:52.411Z,99720.84
2023-02-19T15:21:55.933Z,99711.28
2023-02-19T15:24:04.386Z,99712.03
2023-02-19T15:26:21.350Z,99722.63
2023-02-19T15:28:29.999Z,99785.81
2023-02-19T15:30:32.621Z,99737.16
2023-02-19T15:32:35.140Z,99763.25
2023-02-19T15:34:37.390Z,99728.44
2023-02-19T15:36:40.342Z,99743.63
2023-02-19T15:38:42.744Z,99759.72
2023-02-19T15:40:47.405Z,99748.94
2023-02-19T15:42:49.859Z,99773.66
2023-02-19T15:45:04.656Z,99770.22
2023-02-19T15:47:41.987Z,99797.69
2023-02-19T15:49:52.904Z,99759.72
2023-02-19T15:52:05.232Z,99745.03
2023-02-19T15:54:51.164Z,99763.31
2023-02-19T15:56:55.656Z,99782.03
2023-02-19T15:58:57.954Z,99830.34
2023-02-19T16:01:28.083Z,99793.28
2023-02-19T16:03:32.704Z,99794.13
2023-02-19T16:05:40.387Z,99773.66
2023-02-19T16:07:44.055Z,99808.75
2023-02-19T16:09:46.444Z,99811.91
2023-02-19T16:11:52.634Z,99808.59
2023-02-19T16:14:21.351Z,99850.44
2023-02-19T16:16:30.258Z,99826.25
2023-02-19T16:18:33.795Z,99828.38
2023-02-19T16:20:36.804Z,99837.75
2023-02-19T16:22:43.464Z,99811.63
2023-02-19T16:24:49.771Z,99803.94
2023-02-19T16:26:52.656Z,99843.25
2023-02-19T16:28:55.875Z,99828.66
2023-02-19T16:31:09.821Z,99843.78
2023-02-19T16:33:22.012Z,99894.50
2023-02-19T16:35:40.483Z,99851.84
2023-02-19T16:37:58.168Z,99873.06
2023-02-19T16:40:11.607Z,99867.44
2023-02-19T16:42:15.503Z,99895.91
2023-02-19T16:44:21.105Z,99920.03
2023-02-19T16:46:24.243Z,99871.03
2023-02-19T16:48:27.442Z,99917.56
2023-02-19T16:50:29.931Z,99909.53
2023-02-19T16:52:32.531Z,99858.81
2023-02-19T16:54:35.277Z,99878.72
2023-02-19T16:56:38.273Z,99891.28
2023-02-19T16:58:40.923Z,99923.91
2023-02-19T17:00:43.711Z,99898.25
2023-02-19T17:02:48.809Z,99925.34
2023-02-19T17:04:55.638Z,99908.00
2023-02-19T17:06:58.712Z,99922.28
2023-02-19T17:09:01.563Z,99939.94
2023-02-19T17:11:07.810Z,99919.59
2023-02-19T17:13:10.735Z,99928.09
2023-02-19T17:15:13.434Z,99934.66
2023-02-19T17:17:15.780Z,99893.78
2023-02-19T17:19:20.105Z,99936.97
2023-02-19T17:21:25.873Z,99934.63
2023-02-19T17:23:28.257Z,99904.63
2023-02-19T17:25:31.163Z,99951.09
2023-02-19T17:27:33.594Z,99958.69
2023-02-19T17:29:37.412Z,99948.50
2023-02-19T17:31:40.379Z,99972.66
2023-02-19T17:33:43.613Z,99954.50
2023-02-19T17:35:46.192Z,99951.38
2023-02-19T17:37:48.935Z,99996.59
2023-02-19T17:39:51.976Z,100001.06
2023-02-19T17:41:54.939Z,99945.84
2023-02-19T17:43:57.519Z,99994.13
2023-02-19T17:46:00.491Z,99983.44
2023-02-19T17:48:03.162Z,100000.28
2023-02-19T17:50:07.162Z,100017.94
2023-02-19T17:52:10.890Z,100038.94
2023-02-19T17:54:13.529Z,99995.16
2023-02-19T17:56:20.289Z,99966.03
2023-02-19T17:58:23.210Z,99999.56
2023-02-19T18:00:28.323Z,100018.84
2023-02-19T18:02:31.343Z,99998.44
2023-02-19T18:04:36.465Z,99977.72
2023-02-19T18:06:39.834Z,99982.84
2023-02-19T18:08:52.829Z,100011.06
2023-02-19T18:10:56.036Z,100021.56
2023-02-19T18:12:58.941Z,100005.28
2023-02-19T18:15:01.972Z,99949.66
2023-02-19T18:17:04.725Z,99985.69
2023-02-19T18:19:08.060Z,100001.53
2023-02-19T18:21:12.658Z,100020.81
2023-02-19T18:23:15.661Z,100008.56
2023-02-19T18:25:20.141Z,100026.09
2023-02-19T18:27:24.362Z,100011.50
2023-02-19T18:29:29.431Z,100017.50
2023-02-19T18:31:34.229Z,100026.28
2023-02-19T18:33:36.923Z,100020.88
2023-02-19T18:35:40.352Z,100079.94
2023-02-19T18:37:44.783Z,100019.53
2023-02-19T18:39:47.488Z,100069.38
2023-02-19T18:41:51.418Z,100031.91
2023-02-19T18:43:53.933Z,100008.06
2023-02-19T18:45:56.704Z,99993.50
2023-02-19T18:47:59.329Z,100049.19
2023-02-19T18:50:02.096Z,100028.69
2023-02-19T18:52:05.066Z,100082.97
2023-02-19T18:54:08.326Z,100028.53
2023-02-19T18:56:11.161Z,100034.28
2023-02-19T18:58:13.968Z,100060.19
2023-02-19T19:00:24.056Z,100085.97
2023-02-19T19:02:29.759Z,100069.47
2023-02-19T19:04:34.967Z,100083.84
2023-02-19T19:06:38.191Z,100069.72
2023-02-19T19:08:41.260Z,100067.94
2023-02-19T19:10:44.082Z,100082.13
2023-02-19T19:12:46.831Z,100058.72
2023-02-19T19:14:49.413Z,100099.50
2023-02-19T19:16:52.509Z,100085.47
2023-02-19T19:18:56.250Z,100082.00
2023-02-19T19:21:03.655Z,100053.97
2023-02-19T19:23:06.982Z,100111.78
2023-02-19T19:25:09.693Z,100086.75
2023-02-19T19:27:12.498Z,100080.50
2023-02-19T19:29:16.550Z,100044.91
2023-02-19T19:31:22.071Z,100082.72
2023-02-19T19:33:27.780Z,100057.78
2023-02-19T19:35:30.795Z,100052.81
2023-02-19T19:37:33.583Z,100090.78
2023-02-19T19:39:36.169Z,100103.16
2023-02-19T19:41:38.971Z,100089.69
2023-02-19T19:43:41.666Z,100092.00
2023-02-19T19:45:44.971Z,100127.44
2023-02-19T19:47:49.410Z,100071.06
2023-02-19T19:49:52.610Z,100090.84
2023-02-19T19:51:58.570Z,100082.56
2023-02-19T19:54:03.541Z,100064.25
2023-02-19T19:56:06.728Z,100127.84
2023-02-19T19:58:09.442Z,100108.72
2023-02-19T20:00:16.604Z,100102.19
2023-02-19T20:02:20.490Z,100112.78
2023-02-19T20:04:24.449Z,100074.00
2023-02-19T20:06:32.638Z,100126.84
2023-02-19T20:08:35.170Z,100164.47
2023-02-19T20:10:37.905Z,100143.41
2023-02-19T20:12:41.280Z,100130.06
2023-02-19T20:14:46.489Z,100113.38
2023-02-19T20:16:50.018Z,100117.72
2023-02-19T20:18:52.768Z,100109.28
2023-02-19T20:20:55.752Z,100116.69
2023-02-19T20:22:58.663Z,100107.50
2023-02-19T20:25:01.302Z,100080.38
2023-02-19T20:27:04.759Z,100109.59
2023-02-19T20:29:09.116Z,100154.44
2023-02-19T20:31:12.371Z,100119.50
2023-02-19T20:33:15.459Z,100119.63
2023-02-19T20:35:18.544Z,100138.00
2023-02-19T20:37:21.575Z,100152.03
2023-02-19T20:39:29.169Z,100139.97
2023-02-19T20:41:31.736Z,100158.84
2023-02-19T20:43:34.297Z,100091.78
2023-02-19T20:45:36.853Z,100159.19
2023-02-19T20:47:40.562Z,100154.25
2023-02-19T20:49:47.086Z,100189.13
2023-02-19T20:51:54.079Z,100136.97
2023-02-19T20:53:57.027Z,100146.84
2023-02-19T20:56:00.432Z,100142.78
2023-02-19T20:58:03.016Z,100164.72
2023-02-19T21:00:07.341Z,100162.25
2023-02-19T21:02:17.274Z,100175.91
2023-02-19T21:04:20.436Z,100182.81
2023-02-19T21:06:23.177Z,100148.91
2023-02-19T21:08:25.834Z,100170.41
2023-02-19T21:10:28.360Z,100177.09
2023-02-19T21:12:32.060Z,100147.94
2023-02-19T21:14:35.102Z,100162.22
2023-02-19T21:16:37.646Z,100193.38
2023-02-19T21:18:40.088Z,100207.50
2023-02-19T21:22:45.497Z,100192.66
2023-02-19T21:24:53.265Z,100189.34
2023-02-19T21:26:56.253Z,100205.50
2023-02-19T21:28:58.643Z,100188.22
2023-02-19T21:31:01.809Z,100191.63
2023-02-19T21:33:04.644Z,100201.59
2023-02-19T21:35:07.688Z,100226.50
2023-02-19T21:37:10.100Z,100190.06
2023-02-19T21:39:16.159Z,100210.91
2023-02-19T21:41:18.569Z,100240.16
2023-02-19T21:43:21.481Z,100174.78
2023-02-19T21:45:23.927Z,100194.00
2023-02-19T21:47:28.114Z,100196.44
2023-02-19T21:49:30.490Z,100192.47
2023-02-19T21:51:42.982Z,100214.19
2023-02-19T21:53:46.605Z,100240.75
2023-02-19T21:55:58.370Z,100224.38
2023-02-19T21:58:01.251Z,100180.53
2023-02-19T22:00:06.360Z,100199.75
2023-02-19T22:02:09.983Z,100235.81
2023-02-19T22:04:17.824Z,100243.31
2023-02-19T22:06:27.444Z,100261.66
2023-02-19T22:08:31.540Z,100228.09
2023-02-19T22:10:34.396Z,100203.50
2023-02-19T22:12:37.035Z,100264.28
2023-02-19T22:14:39.371Z,100195.53
2023-02-19T22:16:41.937Z,100244.75
2023-02-19T22:18:52.951Z,100231.72
2023-02-19T22:20:55.738Z,100245.19
2023-02-19T22:22:58.200Z,100209.44
2023-02-19T22:25:01.111Z,100228.78
2023-02-19T22:27:04.180Z,100281.97
2023-02-19T22:29:08.737Z,100237.25
2023-02-19T22:31:11.751Z,100261.53
2023-02-19T22:33:14.396Z,100251.53
2023-02-19T22:35:17.190Z,100274.78
2023-02-19T22:37:20.045Z,100195.72
2023-02-19T22:39:26.162Z,100233.44
2023-02-19T22:41:28.868Z,100285.25
2023-02-19T22:43:31.317Z,100281.06
2023-02-19T22:45:34.041Z,100249.69
2023-02-19T22:47:36.473Z,100309.56
2023-02-19T22:49:40.147Z,100310.50
2023-02-19T22:51:49.991Z,100297.91
2023-02-19T22:53:54.989Z,100259.78
2023-02-19T22:55:57.449Z,100296.50
2023-02-19T22:58:00.267Z,100283.91
2023-02-19T23:00:07.181Z,100265.72
2023-02-19T23:02:09.732Z,100290.59
2023-02-19T23:04:12.318Z,100239.94
2023-02-19T23:06:16.255Z,100333.78
2023-02-19T23:08:18.796Z,100307.22
2023-02-19T23:10:21.573Z,100298.00
2023-02-19T23:12:24.538Z,100289.44
2023-02-19T23:14:27.393Z,100332.53
2023-02-19T23:16:29.956Z,100271.94
2023-02-19T23:18:32.315Z,100301.91
2023-02-19T23:20:36.232Z,100271.97
2023-02-19T23:22:38.587Z,100315.34
2023-02-19T23:24:41.042Z,100320.94
2023-02-19T23:26:48.398Z,100306.69
2023-02-19T23:28:51.166Z,100341.06
2023-02-19T23:30:53.467Z,100243.72
2023-02-19T23:32:55.879Z,100277.75
2023-02-19T23:34:58.494Z,100260.91
2023-02-19T23:37:00.851Z,100300.69
2023-02-19T23:39:03.810Z,100259.75
2023-02-19T23:41:11.378Z,100287.94
2023-02-19T23:43:13.688Z,100241.22
2023-02-19T23:45:16.974Z,100267.00
2023-02-19T23:47:20.594Z,100267.78
2023-02-19T23:49:23.236Z,100282.78
2023-02-19T23:51:26.156Z,100284.25
2023-02-19T23:54:10.551Z,100248.50
2023-02-19T23:56:13.230Z,100265.94
2023-02-19T23:58:15.861Z,100266.78
